Terminal Aerodrome Forecast
Issued by NWS Jackson, MS

Home | Current Version | Previous Version | Text Only | Print | Product List | Glossary On
Versions: 1 2 3 4 5 6 7 8 9 10 11 12 13 14 15
000
FTUS44 KJAN 201120
TAFHBG
TAF
KHBG 201120Z 2012/2112 VRB03KT 6SM BR FEW005 SCT250
     FM201400 26003KT P6SM VCSH SCT035 SCT050
     FM201900 19005KT P6SM VCTS SCT050CB
     FM210000 15003KT P6SM SCT100=

USA.gov is the U.S. government's official web portal to all federal, state and local government web resources and services.